Time;durP1;ratioP1;P1;durP2;ratioP2;P2;SDS_P1;SDS_P2;PMS_P1;PMS_P2;Temp;Humidity;BMP_temperature;BMP_pressure;BME280_temperature;BME280_humidity;BME280_pressure;Samples;Min_cycle;Max_cycle;Signal;HPM_P1;HPM_P2
2021/03/13 00:01:43;;;;;;;33.30;16.67;;;;;;;5.52;74.86;99267.66;1659805;85;22540;-68
2021/03/13 00:04:09;;;;;;;35.40;17.60;;;;;;;5.49;74.80;99265.83;1670859;85;22616;-68
2021/03/13 00:06:34;;;;;;;35.43;16.27;;;;;;;5.29;75.41;99261.16;1669106;85;21086;-69
2021/03/13 00:09:00;;;;;;;34.23;17.48;;;;;;;5.40;75.05;99260.47;1668204;84;28571;-67
2021/03/13 00:11:26;;;;;;;37.10;17.20;;;;;;;5.29;75.23;99259.85;1654969;85;27198;-68
2021/03/13 00:13:52;;;;;;;34.13;16.53;;;;;;;5.31;75.46;99256.10;1663014;85;22532;-68
2021/03/13 00:16:17;;;;;;;33.83;16.40;;;;;;;5.39;75.01;99262.77;1659824;85;22675;-68
2021/03/13 00:18:43;;;;;;;35.50;17.50;;;;;;;5.29;75.32;99256.73;1654320;85;20918;-68
2021/03/13 00:21:09;;;;;;;39.78;17.85;;;;;;;5.26;75.46;99250.98;1657559;84;26716;-68
2021/03/13 00:23:35;;;;;;;34.10;17.52;;;;;;;5.23;75.48;99248.16;1667381;85;21668;-68
2021/03/13 00:26:01;;;;;;;31.97;16.67;;;;;;;5.33;74.94;99248.95;1664616;85;21857;-68
2021/03/13 00:28:27;;;;;;;35.13;16.30;;;;;;;5.36;74.86;99249.97;1663027;85;21706;-69
2021/03/13 00:30:53;;;;;;;36.07;17.23;;;;;;;5.29;74.62;99238.42;1661375;85;20958;-69
2021/03/13 00:33:22;;;;;;;37.20;17.97;;;;;;;5.12;75.27;99238.69;1652695;85;28696;-69
2021/03/13 00:35:49;;;;;;;34.08;16.17;;;;;;;5.16;75.19;99238.75;1664552;84;21306;-69
2021/03/13 00:38:15;;;;;;;33.15;16.27;;;;;;;5.26;74.65;99236.09;1669308;84;21179;-68
2021/03/13 00:40:42;;;;;;;33.35;16.57;;;;;;;5.27;74.52;99239.05;1663356;85;21758;-68
2021/03/13 00:43:10;;;;;;;37.17;15.65;;;;;;;5.11;74.95;99233.14;1659371;83;21243;-68
2021/03/13 00:45:35;;;;;;;30.55;15.05;;;;;;;5.18;74.56;99230.76;1666336;85;21721;-68
2021/03/13 00:48:02;;;;;;;31.87;15.80;;;;;;;5.06;75.08;99234.52;1647547;85;24250;-67
2021/03/13 00:50:30;;;;;;;36.73;15.53;;;;;;;5.17;74.70;99231.72;1646660;85;21908;-70
2021/03/13 00:52:56;;;;;;;37.53;16.55;;;;;;;5.00;75.16;99238.06;1617965;87;28891;-68
2021/03/13 00:55:22;;;;;;;33.35;16.52;;;;;;;4.83;75.98;99230.93;1656152;85;21309;-69
2021/03/13 00:57:47;;;;;;;33.83;16.33;;;;;;;4.89;75.54;99231.67;1649228;85;26816;-69
2021/03/13 01:00:17;;;;;;;32.67;15.93;;;;;;;4.91;75.44;99227.14;1661626;85;26273;-69
2021/03/13 01:02:43;;;;;;;36.33;17.65;;;;;;;4.86;75.51;99222.80;1663613;85;21711;-68
2021/03/13 01:05:10;;;;;;;31.12;16.15;;;;;;;4.71;75.98;99220.29;1653072;85;21214;-68
2021/03/13 01:07:36;;;;;;;34.08;16.32;;;;;;;4.51;76.56;99211.69;1663017;85;21215;-67
2021/03/13 01:10:06;;;;;;;35.50;16.50;;;;;;;4.62;76.39;99206.30;1655214;85;26854;-67
2021/03/13 01:12:32;;;;;;;37.78;16.93;;;;;;;4.60;76.40;99211.66;1633374;87;21277;-67
2021/03/13 01:14:57;;;;;;;36.47;17.40;;;;;;;4.63;76.24;99208.77;1650866;85;22741;-68
2021/03/13 01:17:23;;;;;;;36.50;17.50;;;;;;;4.65;75.90;99206.83;1660820;85;22620;-68
2021/03/13 01:19:49;;;;;;;34.90;16.97;;;;;;;4.59;75.94;99209.19;1658319;85;21033;-68
2021/03/13 01:22:15;;;;;;;33.83;17.07;;;;;;;4.42;76.61;99208.11;1654212;85;28450;-67
2021/03/13 01:24:41;;;;;;;34.53;17.23;;;;;;;4.38;76.75;99204.12;1659690;85;26181;-68
2021/03/13 01:27:10;;;;;;;38.70;17.35;;;;;;;4.39;76.70;99197.94;1640234;85;21298;-69
2021/03/13 01:29:36;;;;;;;37.48;17.02;;;;;;;4.36;76.65;99196.91;1659312;85;21297;-68
2021/03/13 01:32:04;;;;;;;36.08;17.45;;;;;;;4.24;76.83;99184.01;1664571;85;21252;-71
2021/03/13 01:34:33;;;;;;;36.10;17.37;;;;;;;4.30;76.83;99185.22;1646149;85;21218;-68
2021/03/13 01:36:59;;;;;;;35.92;17.17;;;;;;;4.30;76.80;99184.76;1655763;85;21243;-69
2021/03/13 01:39:25;;;;;;;35.63;15.83;;;;;;;4.25;76.83;99186.13;1651002;85;21168;-68
2021/03/13 01:41:51;;;;;;;38.50;17.43;;;;;;;4.21;76.87;99179.05;1647036;85;21012;-68
2021/03/13 01:44:17;;;;;;;38.83;16.60;;;;;;;4.30;76.72;99175.61;1671015;84;21675;-68
2021/03/13 01:46:43;;;;;;;39.17;16.83;;;;;;;4.36;76.26;99179.92;1683251;84;25860;-68
2021/03/13 01:49:14;;;;;;;34.48;16.15;;;;;;;4.30;76.38;99171.69;1681157;84;21212;-68
2021/03/13 01:51:40;;;;;;;33.95;16.12;;;;;;;4.44;75.82;99169.58;1678945;84;21890;-68
2021/03/13 01:54:05;;;;;;;36.67;16.57;;;;;;;4.46;75.74;99167.67;1681739;84;20962;-69
2021/03/13 01:56:31;;;;;;;34.13;16.10;;;;;;;4.50;75.46;99165.09;1631218;86;21003;-69
2021/03/13 01:58:57;;;;;;;39.23;17.17;;;;;;;4.53;75.22;99159.58;1661811;86;26748;-67
2021/03/13 02:01:23;;;;;;;35.48;16.65;;;;;;;4.43;75.20;99157.50;1658905;86;25150;-68
2021/03/13 02:03:49;;;;;;;36.90;15.97;;;;;;;4.39;75.45;99150.89;1660747;85;21458;-68
2021/03/13 02:06:14;;;;;;;38.58;17.17;;;;;;;4.59;74.90;99155.09;1654869;85;21252;-68
2021/03/13 02:09:18;;;;;;;35.43;16.50;;;;;;;4.47;75.11;99159.69;1660334;85;21068;-68
2021/03/13 02:12:25;;;;;;;35.95;16.62;;;;;;;4.38;75.11;99160.53;1653389;85;21755;-68
2021/03/13 02:15:23;;;;;;;40.98;16.77;;;;;;;4.42;74.75;99157.14;1658402;85;21203;-68
2021/03/13 02:18:10;;;;;;;33.13;14.47;;;;;;;4.44;74.98;99155.20;1631315;85;21248;-68
2021/03/13 02:21:02;;;;;;;31.23;14.03;;;;;;;4.62;74.12;99153.50;1651807;85;21826;-69
2021/03/13 02:23:28;;;;;;;37.58;16.82;;;;;;;4.57;74.09;99150.50;1652060;85;21219;-68
2021/03/13 02:26:52;;;;;;;36.93;16.03;;;;;;;4.44;74.31;99151.28;1643785;85;27246;-68
2021/03/13 02:29:54;;;;;;;32.30;14.15;;;;;;;4.31;74.53;99145.88;1658482;85;21157;-66
2021/03/13 02:32:44;;;;;;;34.10;14.60;;;;;;;4.36;74.44;99144.64;1659067;85;21758;-67
2021/03/13 02:35:31;;;;;;;40.00;14.53;;;;;;;4.54;73.95;99144.25;1658107;85;22396;-68
2021/03/13 02:38:04;;;;;;;32.03;14.40;;;;;;;4.60;73.48;99154.14;1656817;85;21269;-68
2021/03/13 02:40:30;;;;;;;30.77;14.25;;;;;;;4.41;73.57;99152.41;1654639;85;21225;-68
2021/03/13 02:43:00;;;;;;;31.00;13.43;;;;;;;4.53;73.50;99145.20;1658086;85;21238;-68
2021/03/13 02:45:29;;;;;;;32.40;14.90;;;;;;;4.46;73.02;99141.53;1631571;86;21212;-69
2021/03/13 02:47:55;;;;;;;31.50;14.18;;;;;;;4.49;73.09;99135.52;1640929;86;21223;-68
2021/03/13 02:50:21;;;;;;;34.63;14.63;;;;;;;4.38;73.08;99133.09;1648189;85;20971;-67
2021/03/13 02:52:48;;;;;;;30.30;12.93;;;;;;;4.46;72.88;99127.16;1663276;85;27801;-68
2021/03/13 02:55:15;;;;;;;30.82;13.90;;;;;;;4.44;72.73;99129.91;1623244;87;21252;-68
2021/03/13 02:57:43;;;;;;;34.73;14.45;;;;;;;4.25;73.21;99122.91;1619520;86;21240;-67
2021/03/13 03:00:10;;;;;;;35.65;14.50;;;;;;;4.33;73.04;99117.48;1634402;86;21295;-67
2021/03/13 03:02:37;;;;;;;31.30;13.32;;;;;;;4.38;72.62;99118.71;1658423;85;21237;-67
2021/03/13 03:05:05;;;;;;;35.40;13.90;;;;;;;4.47;72.51;99117.86;1644096;86;21288;-67
2021/03/13 03:07:31;;;;;;;30.55;13.60;;;;;;;4.34;72.53;99119.14;1647153;86;21257;-68
2021/03/13 03:09:56;;;;;;;32.40;12.20;;;;;;;4.30;72.40;99119.42;1657645;85;21047;-68
2021/03/13 03:12:24;;;;;;;34.83;14.30;;;;;;;4.36;72.22;99119.81;1657372;85;21038;-68
2021/03/13 03:14:49;;;;;;;29.40;12.93;;;;;;;4.28;72.43;99120.02;1640926;86;21190;-67
2021/03/13 03:17:15;;;;;;;33.57;13.50;;;;;;;4.53;72.06;99121.67;1650474;85;23920;-67
2021/03/13 03:19:41;;;;;;;33.03;14.93;;;;;;;4.51;71.95;99123.62;1649749;85;21132;-67
2021/03/13 03:22:07;;;;;;;34.53;13.40;;;;;;;4.45;71.78;99117.65;1633979;85;22096;-67
2021/03/13 03:24:33;;;;;;;34.87;12.77;;;;;;;4.49;71.50;99117.72;1647687;85;20994;-69
2021/03/13 03:26:59;;;;;;;34.30;14.13;;;;;;;4.51;71.49;99110.55;1658199;85;21055;-68
2021/03/13 03:29:26;;;;;;;29.87;13.10;;;;;;;4.58;71.39;99099.02;1642065;85;21751;-68
2021/03/13 03:31:52;;;;;;;34.13;12.93;;;;;;;4.68;71.15;99101.94;1645776;86;21307;-68
2021/03/13 03:34:18;;;;;;;35.95;14.58;;;;;;;4.71;70.80;99096.07;1650737;85;21411;-68
2021/03/13 03:36:44;;;;;;;34.87;13.60;;;;;;;4.61;70.90;99093.02;1653682;85;21082;-68
2021/03/13 03:39:10;;;;;;;30.20;13.63;;;;;;;4.59;70.86;99097.58;1645457;85;22491;-68
2021/03/13 03:41:35;;;;;;;33.73;14.30;;;;;;;4.55;70.87;99096.20;1645024;85;21527;-67
2021/03/13 03:44:05;;;;;;;32.78;14.73;;;;;;;4.53;71.05;99085.08;1651117;84;27230;-67
2021/03/13 03:46:34;;;;;;;32.33;13.83;;;;;;;4.49;71.09;99083.73;1656402;85;21204;-68
2021/03/13 03:49:04;;;;;;;32.88;14.53;;;;;;;4.26;71.43;99086.69;1653497;85;21208;-67
2021/03/13 03:51:29;;;;;;;40.73;14.78;;;;;;;4.19;71.70;99086.90;1643489;85;21257;-68
2021/03/13 03:53:55;;;;;;;35.83;14.87;;;;;;;4.29;71.44;99091.63;1658649;85;27567;-68
2021/03/13 03:56:22;;;;;;;38.70;15.33;;;;;;;4.30;71.60;99078.91;1629643;85;26460;-68
2021/03/13 03:58:48;;;;;;;38.10;14.78;;;;;;;4.27;71.41;99081.80;1659233;85;21701;-68
2021/03/13 04:01:14;;;;;;;38.53;16.47;;;;;;;4.30;71.46;99074.14;1634879;85;23566;-68
2021/03/13 04:03:43;;;;;;;41.93;16.03;;;;;;;4.49;71.01;99070.66;1660757;85;20940;-67
2021/03/13 04:06:11;;;;;;;41.15;15.38;;;;;;;4.37;70.86;99067.39;1654455;85;21215;-67
2021/03/13 04:11:13;;;;;;;46.33;17.57;;;;;;;4.70;70.45;99059.95;1830412;77;26936;-68
2021/03/13 04:13:39;;;;;;;40.23;16.45;;;;;;;4.58;70.19;99060.62;1789729;78;21223;-67
2021/03/13 04:16:05;;;;;;;43.03;16.23;;;;;;;4.51;70.51;99054.34;1790054;78;21345;-66
2021/03/13 04:18:31;;;;;;;39.00;16.15;;;;;;;4.62;70.25;99052.84;1787850;78;21682;-66
2021/03/13 04:20:57;;;;;;;44.47;17.10;;;;;;;4.63;70.48;99051.88;1758489;79;21573;-68
2021/03/13 04:23:23;;;;;;;41.87;16.47;;;;;;;4.66;70.11;99043.74;1785549;78;27768;-69
2021/03/13 04:25:51;;;;;;;42.00;16.35;;;;;;;4.44;70.65;99041.49;1788676;78;25125;-69
2021/03/13 04:28:17;;;;;;;42.90;16.10;;;;;;;4.65;70.33;99039.97;1786737;78;21065;-68
2021/03/13 04:30:42;;;;;;;43.45;16.67;;;;;;;4.45;70.31;99032.70;1755967;78;21215;-68
2021/03/13 04:33:08;;;;;;;44.43;17.83;;;;;;;4.59;70.39;99034.01;1758832;78;20949;-67
2021/03/13 04:35:34;;;;;;;40.90;16.10;;;;;;;4.53;70.36;99028.86;1758555;79;26789;-67
2021/03/13 04:38:00;;;;;;;43.25;17.80;;;;;;;4.57;70.25;99029.39;1786811;78;27185;-68
2021/03/13 04:40:25;;;;;;;39.67;16.97;;;;;;;4.63;70.21;99015.27;1754006;80;21205;-68
2021/03/13 04:42:51;;;;;;;45.90;17.47;;;;;;;4.77;69.75;99011.34;1787943;78;20935;-67
2021/03/13 04:45:17;;;;;;;48.03;18.27;;;;;;;4.72;69.71;98999.66;1787087;78;21042;-68
2021/03/13 04:47:46;;;;;;;41.37;17.20;;;;;;;4.78;69.79;99012.16;1755807;78;28078;-67
2021/03/13 04:50:18;;;;;;;47.15;17.52;;;;;;;4.74;69.69;98997.71;1786616;78;21607;-67
2021/03/13 04:52:43;;;;;;;48.20;17.65;;;;;;;4.79;69.54;99005.47;1787655;78;21404;-68
2021/03/13 04:55:10;;;;;;;48.27;18.03;;;;;;;4.84;69.56;99001.91;1756412;79;22115;-68
2021/03/13 04:57:36;;;;;;;41.73;18.00;;;;;;;4.85;69.51;98997.52;1788665;78;21183;-68
2021/03/13 05:00:06;;;;;;;45.03;17.87;;;;;;;4.80;69.30;99002.36;1788906;78;26830;-68
2021/03/13 05:02:31;;;;;;;42.78;18.40;;;;;;;4.86;69.23;99007.00;1788194;78;21235;-68
2021/03/13 05:04:57;;;;;;;47.30;18.10;;;;;;;4.95;68.97;99000.88;1791412;78;22599;-66
2021/03/13 05:07:23;;;;;;;43.93;18.50;;;;;;;5.07;68.83;98996.27;1788825;78;22182;-67
2021/03/13 05:09:49;;;;;;;44.90;18.43;;;;;;;5.11;68.55;98991.55;1795472;78;21502;-67
2021/03/13 05:12:15;;;;;;;41.57;17.30;;;;;;;5.10;68.54;98989.92;1796678;78;25820;-68
2021/03/13 05:14:40;;;;;;;43.63;18.23;;;;;;;4.99;68.43;98966.92;1797015;78;24271;-68
2021/03/13 05:17:06;;;;;;;45.03;18.03;;;;;;;4.93;68.92;98980.59;1794238;78;21357;-67
2021/03/13 05:19:32;;;;;;;44.63;17.33;;;;;;;5.03;68.92;98976.12;1792148;78;22353;-68
2021/03/13 05:21:57;;;;;;;44.53;18.17;;;;;;;5.00;68.86;98975.11;1792105;78;21025;-68
2021/03/13 05:24:23;;;;;;;44.53;17.33;;;;;;;4.99;68.94;98967.41;1791155;78;28920;-67
2021/03/13 05:26:49;;;;;;;48.78;17.25;;;;;;;5.09;68.73;98961.60;1792044;78;27262;-69
2021/03/13 05:29:15;;;;;;;43.20;18.07;;;;;;;5.09;68.65;98975.18;1796012;78;21858;-68
2021/03/13 05:31:41;;;;;;;43.92;17.70;;;;;;;5.01;68.66;98968.89;1800420;78;21474;-68
2021/03/13 05:34:06;;;;;;;40.20;16.73;;;;;;;5.02;68.49;98967.93;1796044;78;21799;-68
2021/03/13 05:36:32;;;;;;;40.65;17.70;;;;;;;5.01;68.38;98966.27;1792787;78;27560;-68
2021/03/13 05:38:58;;;;;;;46.17;18.53;;;;;;;5.04;68.58;98965.97;1792163;78;27195;-68
2021/03/13 05:41:23;;;;;;;44.53;17.70;;;;;;;5.03;68.76;98964.81;1794471;78;21298;-68
2021/03/13 05:43:49;;;;;;;45.93;17.80;;;;;;;4.94;68.70;98960.02;1796954;78;22635;-68
2021/03/13 05:46:18;;;;;;;45.23;17.83;;;;;;;4.97;68.87;98963.64;1797489;78;21843;-68
2021/03/13 05:48:44;;;;;;;43.68;17.57;;;;;;;5.03;68.76;98969.58;1799106;78;21180;-68
2021/03/13 05:51:12;;;;;;;42.13;17.48;;;;;;;4.93;68.99;98963.59;1795517;78;25056;-67
2021/03/13 05:53:37;;;;;;;40.10;17.55;;;;;;;5.08;68.83;98962.59;1795207;78;21222;-68
2021/03/13 05:56:04;;;;;;;46.47;17.77;;;;;;;5.01;68.74;98962.34;1800113;78;21620;-67
2021/03/13 05:58:29;;;;;;;46.88;17.95;;;;;;;5.19;68.30;98965.47;1793426;78;21214;-68
2021/03/13 06:00:55;;;;;;;47.67;17.73;;;;;;;5.12;68.46;98964.41;1801184;78;26823;-68
2021/03/13 06:03:21;;;;;;;46.13;18.50;;;;;;;5.13;68.26;98961.64;1796618;78;26238;-68
2021/03/13 06:05:47;;;;;;;42.33;16.90;;;;;;;5.04;68.26;98963.36;1794173;78;21291;-68
2021/03/13 06:08:16;;;;;;;42.73;18.02;;;;;;;5.13;68.51;98966.06;1761473;78;21688;-68
2021/03/13 06:10:42;;;;;;;43.23;17.30;;;;;;;5.18;68.26;98976.40;1806686;78;21505;-68
2021/03/13 06:13:09;;;;;;;42.27;17.02;;;;;;;5.43;67.80;98984.95;1802183;78;21169;-68
2021/03/13 06:15:35;;;;;;;41.75;16.45;;;;;;;5.63;67.60;98986.91;1797908;78;21226;-68
2021/03/13 06:18:03;;;;;;;40.27;17.20;;;;;;;5.69;67.05;98988.91;1799951;78;22195;-68
2021/03/13 06:20:37;;;;;;;48.35;18.57;;;;;;;5.68;66.34;98992.00;1803574;78;21180;-68
2021/03/13 06:23:10;;;;;;;37.38;17.15;;;;;;;5.67;66.62;99000.85;1798476;78;21215;-68
2021/03/13 06:25:37;;;;;;;40.60;17.35;;;;;;;5.64;66.40;99006.39;1799833;78;21211;-67
2021/03/13 06:28:11;;;;;;;40.50;16.00;;;;;;;5.73;66.23;99018.58;1801386;78;22281;-68
2021/03/13 06:30:44;;;;;;;41.23;17.02;;;;;;;5.71;66.30;99020.50;1793581;78;21177;-67
2021/03/13 06:33:31;;;;;;;44.40;16.97;;;;;;;5.72;65.83;99019.54;1799602;78;21211;-67
2021/03/13 06:36:03;;;;;;;42.23;15.88;;;;;;;5.81;65.83;99019.59;1800268;78;21207;-68
2021/03/13 06:38:30;;;;;;;38.85;17.35;;;;;;;6.00;65.83;99029.91;1798785;78;21185;-68
2021/03/13 06:40:58;;;;;;;36.85;17.05;;;;;;;6.09;65.66;99031.61;1797413;78;21215;-68
2021/03/13 06:43:30;;;;;;;41.90;16.40;;;;;;;6.11;65.08;99038.81;1773328;78;21239;-67
2021/03/13 06:46:10;;;;;;;39.42;15.38;;;;;;;6.18;65.13;99036.89;1795343;78;21503;-67
2021/03/13 06:48:50;;;;;;;36.33;17.02;;;;;;;6.00;64.67;99039.08;1798844;78;21567;-68
2021/03/13 06:51:36;;;;;;;37.85;17.80;;;;;;;6.18;65.25;99049.49;1800559;78;21232;-68
2021/03/13 06:54:15;;;;;;;36.20;16.35;;;;;;;6.15;65.25;99047.18;1794018;78;21250;-68
2021/03/13 06:56:54;;;;;;;41.40;16.45;;;;;;;6.19;65.26;99054.27;1800482;78;21325;-68
2021/03/13 06:59:33;;;;;;;36.42;16.32;;;;;;;6.18;65.14;99063.09;1801640;78;21213;-67
2021/03/13 07:02:02;;;;;;;34.63;15.63;;;;;;;5.67;67.10;99063.71;1795559;78;21207;-68
2021/03/13 07:04:38;;;;;;;37.80;15.55;;;;;;;5.56;69.62;99070.47;1794285;78;21146;-68
2021/03/13 07:07:05;;;;;;;30.23;13.32;;;;;;;5.51;71.13;99075.34;1794257;78;21192;-67
2021/03/13 07:09:53;;;;;;;34.38;12.60;;;;;;;5.21;74.21;99078.67;1798606;78;21218;-67
2021/03/13 07:12:28;;;;;;;27.95;13.03;;;;;;;5.29;75.29;99080.05;1793569;78;21201;-67
2021/03/13 07:15:17;;;;;;;31.23;11.08;;;;;;;5.30;76.26;99083.48;1796976;78;21189;-67
2021/03/13 07:17:53;;;;;;;22.90;10.98;;;;;;;5.27;77.66;99087.73;1798263;78;21563;-66
2021/03/13 07:20:22;;;;;;;27.50;11.50;;;;;;;5.11;78.93;99092.29;1808672;78;21593;-68
2021/03/13 07:22:57;;;;;;;25.95;11.00;;;;;;;4.95;80.44;99093.75;1801390;78;21634;-68
2021/03/13 07:25:25;;;;;;;29.98;11.88;;;;;;;4.97;80.82;99087.91;1801625;78;21184;-68
2021/03/13 07:28:02;;;;;;;25.12;10.30;;;;;;;5.17;80.57;99081.23;1803856;78;21207;-68
2021/03/13 07:30:30;;;;;;;22.70;11.78;;;;;;;4.70;82.20;99101.80;1795735;78;21178;-68
2021/03/13 07:33:05;;;;;;;26.75;10.95;;;;;;;4.65;83.74;99091.77;1803273;78;21131;-68
2021/03/13 07:35:37;;;;;;;28.30;11.25;;;;;;;4.80;83.68;99095.20;1778509;78;21174;-68
2021/03/13 07:38:04;;;;;;;28.45;12.47;;;;;;;4.86;83.46;99106.39;1799908;78;21200;-68
2021/03/13 07:40:30;;;;;;;23.83;11.25;;;;;;;4.63;84.34;99097.64;1799384;78;21159;-68
2021/03/13 07:42:56;;;;;;;33.33;12.73;;;;;;;4.72;84.22;99105.58;1806336;78;28761;-67
2021/03/13 07:45:22;;;;;;;25.33;10.77;;;;;;;4.57;85.25;99101.28;1803055;78;26198;-67
2021/03/13 07:47:48;;;;;;;31.47;12.27;;;;;;;4.45;85.59;99096.25;1804037;78;21356;-67
2021/03/13 07:50:14;;;;;;;25.57;10.60;;;;;;;4.48;85.94;99096.45;1801121;78;22121;-67
2021/03/13 07:52:42;;;;;;;25.23;10.30;;;;;;;4.89;84.00;99086.48;1796575;78;21187;-68
2021/03/13 07:55:11;;;;;;;25.72;10.13;;;;;;;5.10;83.17;99078.89;1805230;78;21116;-68
2021/03/13 07:57:37;;;;;;;20.60;9.63;;;;;;;5.13;83.00;99075.98;1809130;78;21201;-67
2021/03/13 08:00:04;;;;;;;24.87;11.10;;;;;;;5.19;82.72;99072.77;1804010;78;21460;-67
2021/03/13 08:02:35;;;;;;;34.60;11.73;;;;;;;5.10;83.28;99080.20;1796199;78;21239;-67
2021/03/13 08:05:08;;;;;;;33.23;11.97;;;;;;;5.26;83.26;99065.14;1795251;78;21176;-68
2021/03/13 08:08:06;;;;;;;25.45;12.20;;;;;;;5.29;82.97;99069.58;1802805;78;21224;-68
2021/03/13 08:10:45;;;;;;;26.90;11.20;;;;;;;5.61;82.34;99060.85;1791185;78;21578;-67
2021/03/13 08:13:31;;;;;;;27.40;10.80;;;;;;;5.74;81.95;99069.16;1797727;78;21238;-67
2021/03/13 08:16:13;;;;;;;25.80;11.12;;;;;;;5.98;80.98;99080.35;1803048;78;21157;-67
2021/03/13 08:18:42;;;;;;;21.15;10.65;;;;;;;5.78;81.27;99077.52;1797454;78;21217;-67
2021/03/13 08:21:23;;;;;;;25.00;11.57;;;;;;;5.86;81.57;99080.23;1797519;78;21200;-68
2021/03/13 08:24:00;;;;;;;19.82;10.68;;;;;;;5.74;81.86;99080.94;1797763;78;21465;-67
2021/03/13 08:26:42;;;;;;;;;;;;;;;5.98;81.09;99079.04;1795791;78;22438;-69
2021/03/13 08:29:08;;;;;;;20.05;9.65;;;;;;;6.05;80.73;99077.43;1794375;78;20304;-67
2021/03/13 08:31:39;;;;;;;23.12;9.98;;;;;;;5.81;80.74;99068.05;1798885;78;21161;-67
2021/03/13 08:34:10;;;;;;;19.15;10.82;;;;;;;5.77;81.69;99062.80;1797220;78;21212;-67
2021/03/13 08:36:49;;;;;;;22.62;10.35;;;;;;;5.66;82.32;99061.24;1800181;78;21255;-67
2021/03/13 08:39:23;;;;;;;19.02;10.72;;;;;;;5.67;82.43;99058.47;1799249;78;21224;-68
2021/03/13 08:41:55;;;;;;;22.87;11.12;;;;;;;5.91;82.16;99067.48;1802135;78;21164;-68
2021/03/13 08:44:32;;;;;;;19.25;10.38;;;;;;;5.90;82.31;99065.83;1805821;78;21219;-68
2021/03/13 08:47:13;;;;;;;20.27;10.40;;;;;;;5.94;82.36;99064.56;1799265;78;21201;-68
2021/03/13 08:49:48;;;;;;;18.32;9.65;;;;;;;6.02;82.00;99057.27;1803835;78;21198;-69
2021/03/13 08:52:21;;;;;;;18.35;9.90;;;;;;;6.08;82.14;99055.34;1800490;78;21256;-69
2021/03/13 08:54:48;;;;;;;18.87;10.32;;;;;;;6.25;81.94;99054.96;1799275;78;21197;-69
2021/03/13 08:57:20;;;;;;;20.75;9.50;;;;;;;6.32;82.27;99054.65;1799265;78;21181;-69
2021/03/13 08:59:57;;;;;;;15.83;9.10;;;;;;;6.51;82.10;99047.53;1793172;78;21608;-69
2021/03/13 09:02:36;;;;;;;16.23;8.88;;;;;;;6.30;82.55;99048.75;1797320;78;21203;-68
2021/03/13 09:05:13;;;;;;;17.77;9.40;;;;;;;6.30;82.19;99035.64;1797207;78;21533;-69
2021/03/13 09:07:40;;;;;;;17.17;8.80;;;;;;;6.29;83.45;99032.67;1798793;78;21722;-69
2021/03/13 09:10:07;;;;;;;20.95;9.68;;;;;;;6.18;83.70;99023.78;1800163;78;21136;-69
2021/03/13 09:12:34;;;;;;;18.05;9.35;;;;;;;6.15;84.34;99035.39;1778082;78;21239;-69
2021/03/13 09:15:04;;;;;;;15.05;8.78;;;;;;;6.31;84.41;99021.56;1776003;80;21551;-69
2021/03/13 09:17:31;;;;;;;16.73;9.23;;;;;;;6.56;84.06;99021.67;1774697;80;21251;-70
2021/03/13 09:20:09;;;;;;;14.55;8.85;;;;;;;6.43;84.64;99033.89;1773144;80;21224;-69
2021/03/13 09:22:40;;;;;;;;;;;;;;;6.65;84.19;99025.97;1777320;80;21231;-69
2021/03/13 09:25:28;;;;;;;15.35;8.23;;;;;;;6.66;83.87;99024.97;1770780;80;20323;-69
2021/03/13 09:27:57;;;;;;;15.50;8.23;;;;;;;6.81;83.94;99027.32;1774819;79;21164;-69
2021/03/13 09:30:24;;;;;;;16.00;7.60;;;;;;;7.20;83.40;99020.67;1773434;80;21653;-71
2021/03/13 09:32:52;;;;;;;14.15;6.62;;;;;;;7.15;82.81;99037.41;1776790;80;21196;-70
2021/03/13 09:35:25;;;;;;;12.73;6.70;;;;;;;7.48;81.71;99030.38;1772317;80;21211;-68
2021/03/13 09:37:51;;;;;;;13.60;6.85;;;;;;;7.64;81.30;99026.11;1747763;80;21694;-68
2021/03/13 09:40:28;;;;;;;13.43;6.58;;;;;;;7.62;80.63;99020.20;1777368;80;26780;-69
2021/03/13 09:42:56;;;;;;;15.38;7.25;;;;;;;7.77;79.87;99019.87;1778366;79;21257;-69
2021/03/13 09:45:26;;;;;;;12.28;6.30;;;;;;;7.85;79.83;99019.84;1772469;79;21235;-68
2021/03/13 09:47:58;;;;;;;11.05;6.05;;;;;;;7.79;79.55;99033.66;1771816;79;21806;-67
2021/03/13 09:50:34;;;;;;;13.75;6.40;;;;;;;7.62;80.09;99017.58;1779988;79;21710;-65
2021/03/13 09:53:01;;;;;;;12.90;5.92;;;;;;;7.76;78.85;99016.09;1777391;80;21244;-66
2021/03/13 09:55:29;;;;;;;14.93;6.08;;;;;;;7.63;79.21;99015.27;1746729;80;21244;-67
2021/03/13 09:58:01;;;;;;;13.72;5.80;;;;;;;7.86;78.34;99014.93;1774337;80;21186;-67
2021/03/13 10:00:35;;;;;;;14.55;6.30;;;;;;;7.76;78.28;99006.89;1775628;80;21237;-65
2021/03/13 10:03:01;;;;;;;11.28;5.62;;;;;;;7.84;77.73;99014.26;1744787;80;21618;-66
2021/03/13 10:05:30;;;;;;;12.25;5.97;;;;;;;8.01;77.57;99020.31;1773296;79;21595;-66
2021/03/13 10:07:56;;;;;;;12.28;6.33;;;;;;;8.06;77.72;99019.80;1771971;80;21341;-65
2021/03/13 10:10:25;;;;;;;13.53;5.87;;;;;;;8.19;77.12;99018.80;1777369;80;27430;-67
2021/03/13 10:13:05;;;;;;;11.75;5.95;;;;;;;8.11;76.35;99023.25;1793136;78;21171;-68
2021/03/13 10:15:37;;;;;;;12.10;6.10;;;;;;;8.12;76.84;99018.33;1789828;78;21196;-66
2021/03/13 10:18:22;;;;;;;10.85;5.55;;;;;;;8.22;76.37;99022.41;1791263;78;21183;-66
2021/03/13 10:20:53;;;;;;;12.75;6.30;;;;;;;8.30;75.74;99023.35;1791864;78;21172;-67
2021/03/13 10:23:31;;;;;;;10.30;5.33;;;;;;;8.25;75.55;99024.70;1789372;78;21247;-67
2021/03/13 10:26:08;;;;;;;12.53;5.55;;;;;;;8.32;74.84;99016.13;1790653;78;21783;-66
2021/03/13 10:28:39;;;;;;;12.90;5.80;;;;;;;8.36;75.09;99010.36;1792267;78;21391;-66
2021/03/13 10:31:19;;;;;;;11.63;5.70;;;;;;;8.54;74.93;99012.77;1791794;78;21223;-66
2021/03/13 10:33:48;;;;;;;12.05;5.53;;;;;;;8.33;74.29;99005.91;1791759;78;21248;-65
2021/03/13 10:36:12;;;;;;;;;;;;;;;8.55;73.96;99011.80;1795842;78;21267;-68
2021/03/13 10:38:39;;;;;;;11.90;5.05;;;;;;;8.44;74.16;99001.66;1791465;78;20442;-67
2021/03/13 10:41:14;;;;;;;10.23;5.12;;;;;;;8.29;72.99;99009.39;1797409;78;21264;-67
2021/03/13 10:43:44;;;;;;;11.40;5.47;;;;;;;8.35;73.01;99018.42;1792422;78;21184;-66
2021/03/13 10:46:26;;;;;;;11.00;5.42;;;;;;;8.12;73.73;99002.05;1789381;78;22076;-66
2021/03/13 10:49:00;;;;;;;8.73;4.92;;;;;;;8.52;73.42;98996.34;1784481;78;21546;-67
2021/03/13 10:51:29;;;;;;;10.40;5.62;;;;;;;8.43;72.45;98999.50;1789483;78;21241;-67
2021/03/13 10:53:56;;;;;;;10.85;5.50;;;;;;;8.53;73.11;98983.53;1791533;78;21579;-67
2021/03/13 10:56:22;;;;;;;7.30;4.53;;;;;;;8.75;72.05;98991.14;1788610;78;21232;-67
2021/03/13 10:58:57;;;;;;;13.13;5.10;;;;;;;8.70;70.84;99001.84;1792083;78;22538;-68
2021/03/13 11:01:22;;;;;;;9.55;4.20;;;;;;;8.71;68.97;98973.23;1796377;78;21318;-66
2021/03/13 11:03:49;;;;;;;12.10;4.25;;;;;;;8.87;67.81;98988.10;1794980;78;25894;-69
2021/03/13 11:06:33;;;;;;;11.73;4.37;;;;;;;8.90;67.26;99004.39;1788137;78;21205;-66
2021/03/13 11:09:02;;;;;;;10.05;4.40;;;;;;;8.98;67.22;98984.59;1793561;78;21215;-67
2021/03/13 11:11:28;;;;;;;9.05;4.30;;;;;;;8.88;66.79;98992.39;1794410;78;21252;-66
2021/03/13 11:13:54;;;;;;;7.60;4.23;;;;;;;9.04;66.76;98983.55;1796269;78;21257;-66
2021/03/13 11:16:22;;;;;;;10.85;4.17;;;;;;;9.11;66.39;98970.02;1793393;78;21595;-67
2021/03/13 11:18:49;;;;;;;;;;;;;;;9.23;66.38;98971.25;1801768;78;21136;-66
2021/03/13 11:21:15;;;;;;;7.80;3.95;;;;;;;9.04;65.87;98983.05;1801533;78;20303;-65
2021/03/13 11:23:41;;;;;;;8.33;3.90;;;;;;;9.24;65.44;98968.91;1792142;78;21935;-66
2021/03/13 11:26:12;;;;;;;6.53;3.70;;;;;;;9.29;64.70;98992.94;1795735;78;26826;-67
2021/03/13 11:28:39;;;;;;;8.28;3.80;;;;;;;9.17;64.15;98964.05;1798837;78;21220;-67
2021/03/13 11:31:05;;;;;;;8.83;3.90;;;;;;;9.26;64.24;98964.78;1797617;78;21251;-66
2021/03/13 11:33:31;;;;;;;8.75;3.98;;;;;;;9.41;63.23;98963.52;1799077;78;21646;-66
2021/03/13 11:35:57;;;;;;;8.93;3.80;;;;;;;9.46;62.07;98976.98;1793316;78;23000;-69
2021/03/13 11:38:22;;;;;;;8.53;3.80;;;;;;;9.67;62.30;98963.94;1794176;78;26901;-67
2021/03/13 11:40:49;;;;;;;9.35;3.83;;;;;;;9.98;61.80;98959.02;1797867;78;25452;-68
2021/03/13 11:43:14;;;;;;;8.08;3.42;;;;;;;10.38;61.18;98952.97;1792845;78;21650;-68
2021/03/13 11:45:42;;;;;;;6.33;3.05;;;;;;;10.53;60.30;98945.52;1771969;78;20967;-69